Time;durP1;ratioP1;P1;durP2;ratioP2;P2;SDS_P1;SDS_P2;PMS_P1;PMS_P2;Temp;Humidity;BMP_temperature;BMP_pressure;BME280_temperature;BME280_humidity;BME280_pressure;Samples;Min_cycle;Max_cycle;Signal;HPM_P1;HPM_P2
2021/04/07 00:00:18;;;;;;;2.55;0.30;;;;;7.90;101188.00;;;;5086243;28;20195;-76
2021/04/07 00:02:45;;;;;;;1.02;0.25;;;;;7.90;101182.00;;;;5087338;28;20183;-76
2021/04/07 00:05:13;;;;;;;1.83;0.32;;;;;7.80;101188.00;;;;5086782;28;20695;-76
2021/04/07 00:07:42;;;;;;;3.20;0.32;;;;;7.80;101202.00;;;;5087726;28;20229;-76
2021/04/07 00:10:11;;;;;;;4.30;0.70;;;;;7.80;101206.00;;;;5084304;28;20206;-76
2021/04/07 00:12:38;;;;;;;1.73;0.43;;;;;7.70;101205.00;;;;5086954;28;20292;-76
2021/04/07 00:15:08;;;;;;;2.72;0.30;;;;;7.70;101205.00;;;;5087332;28;20616;-77
2021/04/07 00:17:36;;;;;;;0.90;0.50;;;;;7.60;101207.00;;;;5087924;28;20214;-76
2021/04/07 00:20:05;;;;;;;1.45;0.38;;;;;7.60;101207.00;;;;5087649;28;20209;-76
2021/04/07 00:22:32;;;;;;;1.05;0.35;;;;;7.50;101206.00;;;;5091074;28;20205;-76
2021/04/07 00:24:59;;;;;;;0.85;0.30;;;;;7.50;101198.00;;;;5074608;28;20190;-77
2021/04/07 00:27:27;;;;;;;3.58;0.63;;;;;7.50;101201.00;;;;5080112;28;20218;-76
2021/04/07 00:29:54;;;;;;;2.85;0.40;;;;;7.50;101199.00;;;;5081733;28;20202;-76
2021/04/07 00:32:21;;;;;;;1.65;0.22;;;;;7.50;101199.00;;;;5090743;28;20187;-76
2021/04/07 00:34:50;;;;;;;0.95;0.25;;;;;7.40;101193.00;;;;5091026;28;20199;-77
2021/04/07 00:37:17;;;;;;;2.90;0.40;;;;;7.50;101199.00;;;;5090612;28;20738;-77
2021/04/07 00:39:44;;;;;;;1.20;0.30;;;;;7.50;101198.00;;;;5084945;28;20209;-76
2021/04/07 00:42:10;;;;;;;1.52;0.10;;;;;7.50;101184.00;;;;5090461;28;20209;-76
2021/04/07 00:44:37;;;;;;;3.58;0.50;;;;;7.50;101184.00;;;;5090382;28;20664;-77
2021/04/07 00:47:04;;;;;;;1.48;0.52;;;;;7.50;101183.00;;;;5089556;28;20287;-76
2021/04/07 00:49:31;;;;;;;6.22;0.80;;;;;7.50;101185.00;;;;5090844;28;20241;-76
2021/04/07 00:51:58;;;;;;;1.90;0.40;;;;;7.50;101180.00;;;;5089649;28;20700;-77
2021/04/07 00:54:25;;;;;;;0.85;0.30;;;;;7.60;101184.00;;;;5073028;28;20221;-76
2021/04/07 00:56:53;;;;;;;1.95;0.40;;;;;7.60;101181.00;;;;5072718;28;20403;-76
2021/04/07 00:59:21;;;;;;;3.63;0.60;;;;;7.60;101174.00;;;;5090430;28;20214;-77
2021/04/07 01:01:48;;;;;;;0.63;0.22;;;;;7.70;101176.00;;;;5090124;28;20239;-76
2021/04/07 01:04:15;;;;;;;3.83;0.40;;;;;7.70;101176.00;;;;5073282;28;20207;-77
2021/04/07 01:06:42;;;;;;;0.65;0.40;;;;;7.70;101188.00;;;;5073944;28;20279;-76
2021/04/07 01:09:10;;;;;;;1.73;0.30;;;;;7.80;101199.00;;;;5089488;28;20527;-76
2021/04/07 01:11:37;;;;;;;2.65;0.70;;;;;7.80;101201.00;;;;5089890;28;20252;-76
2021/04/07 01:14:04;;;;;;;0.60;0.40;;;;;7.80;101194.00;;;;5088598;28;20248;-76
2021/04/07 01:16:32;;;;;;;0.70;0.20;;;;;7.80;101188.00;;;;5090394;28;20668;-77
2021/04/07 01:18:59;;;;;;;0.68;0.20;;;;;7.80;101188.00;;;;5090284;28;20202;-76
2021/04/07 01:21:25;;;;;;;0.52;0.15;;;;;7.80;101189.00;;;;5074980;28;20728;-76
2021/04/07 01:23:53;;;;;;;1.05;0.30;;;;;7.80;101187.00;;;;5069644;28;20212;-76
2021/04/07 01:26:20;;;;;;;2.60;0.20;;;;;7.90;101197.00;;;;5069805;28;20233;-76
2021/04/07 01:28:47;;;;;;;1.88;0.20;;;;;7.90;101194.00;;;;5079594;28;20248;-75
2021/04/07 01:31:14;;;;;;;1.30;0.43;;;;;7.90;101202.00;;;;5088061;28;20672;-76
2021/04/07 01:33:42;;;;;;;2.85;0.20;;;;;7.90;101198.00;;;;5088229;28;20190;-76
2021/04/07 01:36:09;;;;;;;0.77;0.43;;;;;7.90;101201.00;;;;5088358;28;20586;-76
2021/04/07 01:38:36;;;;;;;1.20;0.20;;;;;7.90;101200.00;;;;5089209;28;20198;-76
2021/04/07 01:41:05;;;;;;;2.17;0.28;;;;;7.90;101205.00;;;;5086138;28;20224;-76
2021/04/07 01:43:32;;;;;;;1.95;0.30;;;;;8.00;101204.00;;;;5088912;28;20216;-77
2021/04/07 01:45:59;;;;;;;1.30;0.25;;;;;8.00;101195.00;;;;5088166;28;20230;-76
2021/04/07 01:48:29;;;;;;;3.20;0.45;;;;;8.00;101185.00;;;;5087478;28;20708;-76
2021/04/07 01:50:57;;;;;;;2.15;0.30;;;;;8.00;101185.00;;;;5088367;28;20221;-76
2021/04/07 01:53:24;;;;;;;0.57;0.30;;;;;8.00;101180.00;;;;5089472;28;20190;-76
2021/04/07 01:55:50;;;;;;;0.93;0.20;;;;;8.00;101180.00;;;;5089155;28;20703;-76
2021/04/07 01:58:18;;;;;;;2.15;0.20;;;;;8.00;101177.00;;;;5088197;28;20198;-76
2021/04/07 02:00:45;;;;;;;2.13;0.20;;;;;8.00;101176.00;;;;5076620;28;20202;-76
2021/04/07 02:03:11;;;;;;;0.98;0.30;;;;;8.00;101180.00;;;;5068876;28;20222;-76
2021/04/07 02:05:38;;;;;;;0.80;0.28;;;;;7.90;101173.00;;;;5079083;28;20255;-76
2021/04/07 02:08:05;;;;;;;2.05;0.30;;;;;7.90;101164.00;;;;5087724;28;20198;-76
2021/04/07 02:10:32;;;;;;;0.55;0.25;;;;;7.90;101175.00;;;;5089038;28;20198;-76
2021/04/07 02:13:01;;;;;;;2.15;0.40;;;;;7.90;101171.00;;;;5087915;28;20198;-76
2021/04/07 02:15:28;;;;;;;0.60;0.20;;;;;7.90;101184.00;;;;5069205;28;20195;-76
2021/04/07 02:17:55;;;;;;;1.30;0.17;;;;;7.90;101193.00;;;;5068750;28;20202;-76
2021/04/07 02:20:22;;;;;;;0.68;0.30;;;;;7.90;101191.00;;;;5077958;28;20575;-76
2021/04/07 02:22:50;;;;;;;1.80;0.40;;;;;7.90;101169.00;;;;5087975;28;20212;-76
2021/04/07 02:25:17;;;;;;;3.75;0.20;;;;;7.90;101166.00;;;;5089079;28;20186;-76
2021/04/07 02:27:44;;;;;;;0.75;0.20;;;;;7.90;101164.00;;;;5079405;28;20218;-76
2021/04/07 02:30:14;;;;;;;0.45;0.25;;;;;7.80;101170.00;;;;5069828;28;20194;-76
2021/04/07 02:32:42;;;;;;;0.70;0.32;;;;;7.80;101167.00;;;;5068839;28;20691;-76
2021/04/07 02:35:10;;;;;;;0.88;0.30;;;;;7.80;101154.00;;;;5068476;28;20195;-76
2021/04/07 02:37:37;;;;;;;0.90;0.22;;;;;7.80;101144.00;;;;5067901;28;20202;-76
2021/04/07 02:40:05;;;;;;;2.03;0.20;;;;;7.80;101143.00;;;;5075370;28;20685;-76
2021/04/07 02:42:32;;;;;;;1.35;0.40;;;;;7.90;101147.00;;;;5085763;28;20206;-76
2021/04/07 02:44:59;;;;;;;0.60;0.32;;;;;7.90;101137.00;;;;5084863;28;20194;-76
2021/04/07 02:47:25;;;;;;;3.42;0.20;;;;;7.90;101127.00;;;;5087814;28;20226;-76
2021/04/07 02:49:53;;;;;;;0.65;0.20;;;;;7.90;101134.00;;;;5087443;28;20234;-76
2021/04/07 02:52:21;;;;;;;1.48;0.32;;;;;7.90;101137.00;;;;5088123;28;20202;-76
2021/04/07 02:54:47;;;;;;;0.63;0.20;;;;;7.90;101140.00;;;;5086386;28;20190;-76
2021/04/07 02:57:14;;;;;;;2.13;0.20;;;;;8.00;101139.00;;;;5087652;28;20264;-76
2021/04/07 02:59:41;;;;;;;1.48;0.30;;;;;8.00;101133.00;;;;5083917;28;20198;-76
2021/04/07 03:02:08;;;;;;;0.50;0.17;;;;;8.00;101135.00;;;;5070898;28;20250;-76
2021/04/07 03:04:34;;;;;;;0.45;0.10;;;;;8.10;101137.00;;;;5068736;28;20355;-76
2021/04/07 03:07:02;;;;;;;0.75;0.20;;;;;8.10;101134.00;;;;5068088;28;20219;-76
2021/04/07 03:09:29;;;;;;;1.48;0.20;;;;;8.00;101137.00;;;;5069596;28;20223;-76
2021/04/07 03:11:56;;;;;;;0.93;0.08;;;;;8.00;101132.00;;;;5087434;28;20894;-76
2021/04/07 03:14:23;;;;;;;1.73;0.40;;;;;8.00;101133.00;;;;5079240;28;20206;-76
2021/04/07 03:16:50;;;;;;;4.32;0.50;;;;;8.00;101131.00;;;;5068274;28;20283;-76
2021/04/07 03:19:17;;;;;;;0.95;0.17;;;;;8.00;101133.00;;;;5080489;28;20228;-76
2021/04/07 03:21:43;;;;;;;4.30;0.70;;;;;8.00;101134.00;;;;5077780;28;20739;-76
2021/04/07 03:24:11;;;;;;;0.77;0.15;;;;;7.90;101122.00;;;;5068095;28;20210;-76
2021/04/07 03:26:38;;;;;;;1.48;0.30;;;;;7.90;101132.00;;;;5068440;28;20240;-76
2021/04/07 03:29:04;;;;;;;1.73;0.20;;;;;7.90;101133.00;;;;5078094;28;20206;-77
2021/04/07 03:31:31;;;;;;;2.33;0.40;;;;;7.80;101125.00;;;;5085360;28;20201;-76
2021/04/07 03:33:58;;;;;;;5.25;0.50;;;;;7.80;101124.00;;;;5068432;28;20202;-77
2021/04/07 03:36:25;;;;;;;2.53;0.30;;;;;7.80;101126.00;;;;5067223;28;20251;-77
2021/04/07 03:38:51;;;;;;;2.25;0.30;;;;;7.80;101121.00;;;;5088453;28;20209;-77
2021/04/07 03:41:19;;;;;;;2.78;0.40;;;;;7.80;101123.00;;;;5082323;28;20690;-77
2021/04/07 03:43:46;;;;;;;1.45;0.20;;;;;7.80;101117.00;;;;5085067;28;20208;-76
2021/04/07 03:46:12;;;;;;;2.47;0.52;;;;;7.80;101114.00;;;;5067788;28;20233;-76
2021/04/07 03:48:39;;;;;;;2.28;0.20;;;;;7.80;101105.00;;;;5085257;28;20226;-77
2021/04/07 03:51:06;;;;;;;1.58;0.63;;;;;7.70;101101.00;;;;5087881;28;20190;-76
2021/04/07 03:53:33;;;;;;;1.95;0.28;;;;;7.70;101093.00;;;;5088263;28;20206;-76
2021/04/07 03:56:00;;;;;;;1.42;0.20;;;;;7.70;101092.00;;;;5091788;28;20209;-77
2021/04/07 03:58:27;;;;;;;0.88;0.30;;;;;7.70;101090.00;;;;5090423;28;20210;-76
2021/04/07 04:00:55;;;;;;;4.78;0.45;;;;;7.70;101085.00;;;;5083763;28;20207;-77
2021/04/07 04:03:22;;;;;;;1.08;0.28;;;;;7.70;101077.00;;;;5077498;28;20228;-76
2021/04/07 04:05:49;;;;;;;0.85;0.30;;;;;7.70;101078.00;;;;5086041;28;20569;-76
2021/04/07 04:08:16;;;;;;;0.50;0.30;;;;;7.60;101078.00;;;;5091302;28;20209;-76
2021/04/07 04:10:43;;;;;;;1.85;0.22;;;;;7.60;101079.00;;;;5090794;28;20368;-76
2021/04/07 04:13:10;;;;;;;0.90;0.17;;;;;7.60;101078.00;;;;5090044;28;20220;-76
2021/04/07 04:15:37;;;;;;;1.27;0.15;;;;;7.60;101072.00;;;;5090892;28;20482;-75
2021/04/07 04:18:07;;;;;;;1.70;0.63;;;;;7.60;101079.00;;;;5091135;28;20682;-76
2021/04/07 04:20:34;;;;;;;0.35;0.05;;;;;7.60;101076.00;;;;5090802;28;20198;-76
2021/04/07 04:23:00;;;;;;;0.95;0.10;;;;;7.60;101070.00;;;;5090256;28;20217;-76
2021/04/07 04:25:27;;;;;;;0.63;0.25;;;;;7.60;101061.00;;;;5089472;28;20650;-76
2021/04/07 04:27:54;;;;;;;1.02;0.28;;;;;7.60;101076.00;;;;5090847;28;20283;-76
2021/04/07 04:30:24;;;;;;;2.75;0.40;;;;;7.60;101057.00;;;;5079438;28;20221;-77
2021/04/07 04:32:51;;;;;;;1.48;0.40;;;;;7.60;101060.00;;;;5090404;28;20191;-76
2021/04/07 04:35:18;;;;;;;0.63;0.15;;;;;7.60;101058.00;;;;5090931;28;20198;-76
2021/04/07 04:37:47;;;;;;;0.93;0.13;;;;;7.60;101053.00;;;;5090815;28;20203;-76
2021/04/07 04:40:15;;;;;;;1.17;0.10;;;;;7.50;101056.00;;;;5085605;28;20195;-76
2021/04/07 04:42:42;;;;;;;0.63;0.20;;;;;7.50;101055.00;;;;5076760;28;20244;-76
2021/04/07 04:45:10;;;;;;;0.47;0.10;;;;;7.50;101047.00;;;;5070592;28;20195;-75
2021/04/07 04:47:37;;;;;;;0.77;0.32;;;;;7.50;101034.00;;;;5073205;28;20225;-77
2021/04/07 04:50:06;;;;;;;0.63;0.10;;;;;7.50;101035.00;;;;5089840;28;20229;-76
2021/04/07 04:52:34;;;;;;;1.05;0.20;;;;;7.50;101037.00;;;;5089734;28;20195;-76
2021/04/07 04:55:00;;;;;;;0.75;0.10;;;;;7.50;101037.00;;;;5089645;28;20677;-76
2021/04/07 04:57:27;;;;;;;0.15;0.10;;;;;7.50;101033.00;;;;5090853;28;20198;-77
2021/04/07 04:59:54;;;;;;;0.20;0.00;;;;;7.50;101038.00;;;;5088695;28;20656;-76
2021/04/07 05:02:21;;;;;;;0.75;0.30;;;;;7.50;101037.00;;;;5089293;28;20202;-76
2021/04/07 05:04:47;;;;;;;0.60;0.10;;;;;7.50;101039.00;;;;5078382;28;20202;-76
2021/04/07 05:07:15;;;;;;;0.38;0.10;;;;;7.50;101042.00;;;;5072543;28;20664;-78
2021/04/07 05:09:41;;;;;;;0.22;0.13;;;;;7.50;101037.00;;;;5077828;28;20197;-76
2021/04/07 05:12:09;;;;;;;0.30;0.28;;;;;7.50;101025.00;;;;5087621;28;20190;-76
2021/04/07 05:14:35;;;;;;;0.30;0.20;;;;;7.50;101025.00;;;;5090251;28;20198;-77
2021/04/07 05:17:02;;;;;;;1.73;0.20;;;;;7.50;101022.00;;;;5070566;28;20218;-77
2021/04/07 05:19:29;;;;;;;0.22;0.20;;;;;7.50;101030.00;;;;5069532;28;20199;-77
2021/04/07 05:21:56;;;;;;;0.43;0.30;;;;;7.50;101022.00;;;;5085971;28;20205;-78
2021/04/07 05:24:23;;;;;;;1.05;0.45;;;;;7.50;101032.00;;;;5088550;28;20198;-77
2021/04/07 05:26:50;;;;;;;0.60;0.40;;;;;7.50;101019.00;;;;5088999;28;20218;-76
2021/04/07 05:29:17;;;;;;;1.27;0.50;;;;;7.50;101033.00;;;;5089280;28;20198;-76
2021/04/07 05:31:45;;;;;;;0.40;0.30;;;;;7.50;101033.00;;;;5088284;28;20277;-76
2021/04/07 05:34:11;;;;;;;0.90;0.50;;;;;7.50;101017.00;;;;5088149;28;20559;-77
2021/04/07 05:36:38;;;;;;;0.65;0.20;;;;;7.50;101030.00;;;;5087528;28;20190;-77
2021/04/07 05:39:05;;;;;;;0.60;0.22;;;;;7.50;101011.00;;;;5087822;28;20202;-77
2021/04/07 05:41:33;;;;;;;1.08;0.30;;;;;7.50;101036.00;;;;5079195;28;20205;-77
2021/04/07 05:44:00;;;;;;;0.55;0.45;;;;;7.60;101048.00;;;;5088320;28;20248;-76
2021/04/07 05:46:28;;;;;;;0.88;0.47;;;;;7.50;101046.00;;;;5089359;28;20225;-77
2021/04/07 05:48:54;;;;;;;0.88;0.40;;;;;7.50;101051.00;;;;5087560;28;20229;-75
2021/04/07 05:51:21;;;;;;;0.68;0.40;;;;;7.50;101048.00;;;;5087129;28;20190;-76
2021/04/07 05:53:48;;;;;;;1.77;0.38;;;;;7.60;101045.00;;;;5087915;28;20198;-76
2021/04/07 05:56:15;;;;;;;1.13;0.28;;;;;7.60;101044.00;;;;5089623;28;20206;-76
2021/04/07 05:58:42;;;;;;;1.52;0.40;;;;;7.70;101041.00;;;;5088575;28;20285;-76
2021/04/07 06:01:09;;;;;;;0.55;0.22;;;;;7.70;101051.00;;;;5082530;28;20202;-76
2021/04/07 06:03:35;;;;;;;0.98;0.35;;;;;7.80;101058.00;;;;5088415;28;20194;-76
2021/04/07 06:06:02;;;;;;;0.77;0.38;;;;;7.80;101064.00;;;;5080938;28;20195;-76
2021/04/07 06:08:29;;;;;;;2.50;0.40;;;;;7.80;101060.00;;;;5070975;28;20194;-76
2021/04/07 06:10:56;;;;;;;1.55;0.52;;;;;7.90;101062.00;;;;5086479;28;20259;-78
2021/04/07 06:13:22;;;;;;;1.15;0.45;;;;;8.00;101060.00;;;;5086420;28;20602;-78
2021/04/07 06:15:50;;;;;;;1.75;0.50;;;;;8.00;101056.00;;;;5089358;28;20206;-78
2021/04/07 06:18:17;;;;;;;2.40;0.43;;;;;8.10;101055.00;;;;5088503;28;20198;-78
2021/04/07 06:20:45;;;;;;;1.85;0.82;;;;;8.10;101062.00;;;;5088790;28;20309;-78
2021/04/07 06:23:14;;;;;;;2.15;0.47;;;;;8.20;101062.00;;;;5089016;28;20198;-78
2021/04/07 06:25:43;;;;;;;1.42;0.60;;;;;8.20;101059.00;;;;5089286;28;20197;-78
2021/04/07 06:28:11;;;;;;;3.65;0.45;;;;;8.30;101063.00;;;;5088733;28;20229;-78
2021/04/07 06:30:41;;;;;;;0.73;0.50;;;;;8.30;101063.00;;;;5089428;28;20202;-77
2021/04/07 06:33:11;;;;;;;1.42;0.50;;;;;8.40;101070.00;;;;5088335;28;20210;-77
2021/04/07 06:35:38;;;;;;;2.20;0.65;;;;;8.40;101069.00;;;;5089464;28;20201;-77
2021/04/07 06:38:05;;;;;;;2.75;0.63;;;;;8.50;101071.00;;;;5088001;28;20256;-76
2021/04/07 06:40:32;;;;;;;2.00;0.40;;;;;8.50;101083.00;;;;5088853;28;20220;-77
2021/04/07 06:43:01;;;;;;;3.28;0.50;;;;;8.60;101081.00;;;;5088529;28;20194;-77
2021/04/07 06:45:29;;;;;;;2.15;0.40;;;;;8.60;101081.00;;;;5087109;28;20214;-75
2021/04/07 06:47:56;;;;;;;1.92;0.40;;;;;8.70;101079.00;;;;5084257;28;20569;-76
2021/04/07 06:50:25;;;;;;;2.47;0.63;;;;;8.80;101096.00;;;;5086675;28;20586;-75
2021/04/07 06:52:55;;;;;;;5.22;1.38;;;;;8.80;101087.00;;;;5078678;28;20207;-75
2021/04/07 06:55:22;;;;;;;2.85;0.73;;;;;8.90;101095.00;;;;5077676;28;20205;-76
2021/04/07 06:57:49;;;;;;;3.28;0.65;;;;;9.00;101105.00;;;;5083595;28;20194;-76
2021/04/07 07:00:16;;;;;;;5.25;1.02;;;;;9.10;101117.00;;;;5080912;28;20210;-76
2021/04/07 07:02:44;;;;;;;6.20;0.90;;;;;9.20;101117.00;;;;5078029;28;20688;-76
2021/04/07 07:05:12;;;;;;;4.30;0.40;;;;;9.30;101126.00;;;;5088399;28;20217;-75
2021/04/07 07:07:39;;;;;;;2.40;0.60;;;;;9.30;101122.00;;;;5082376;28;20226;-75
2021/04/07 07:10:07;;;;;;;2.90;0.82;;;;;9.40;101129.00;;;;5071064;28;20198;-76
2021/04/07 07:12:35;;;;;;;1.27;0.40;;;;;9.50;101128.00;;;;5083673;28;20713;-76
2021/04/07 07:15:04;;;;;;;2.72;0.77;;;;;9.60;101148.00;;;;5086187;28;20198;-75
2021/04/07 07:17:32;;;;;;;2.42;0.68;;;;;9.70;101153.00;;;;5081340;28;20246;-76
2021/04/07 07:19:59;;;;;;;4.35;0.70;;;;;9.80;101153.00;;;;5087041;28;20194;-76
2021/04/07 07:22:28;;;;;;;4.00;0.85;;;;;9.90;101165.00;;;;5087058;28;20202;-75
2021/04/07 07:24:57;;;;;;;3.28;0.60;;;;;9.90;101182.00;;;;5085633;28;20625;-75
2021/04/07 07:27:36;;;;;;;4.57;0.85;;;;;10.00;101172.00;;;;5084992;28;20229;-74
2021/04/07 07:30:04;;;;;;;4.32;0.70;;;;;10.10;101171.00;;;;5080011;28;20209;-74
2021/04/07 07:32:36;;;;;;;5.03;1.17;;;;;10.10;101194.00;;;;5085956;28;20186;-74
2021/04/07 07:35:08;;;;;;;5.43;1.05;;;;;10.20;101187.00;;;;5088285;28;20268;-74
2021/04/07 07:37:35;;;;;;;10.05;1.00;;;;;10.20;101185.00;;;;5079368;28;20225;-74
2021/04/07 07:40:05;;;;;;;3.13;0.77;;;;;10.20;101203.00;;;;5086409;28;20667;-75
2021/04/07 07:42:32;;;;;;;7.50;1.08;;;;;10.20;101211.00;;;;5077871;28;20248;-74
2021/04/07 07:44:58;;;;;;;3.80;0.93;;;;;10.20;101207.00;;;;5087835;28;20198;-74
2021/04/07 07:47:28;;;;;;;5.63;1.15;;;;;10.20;101214.00;;;;5077206;28;20782;-74
2021/04/07 07:49:57;;;;;;;3.28;0.90;;;;;10.30;101216.00;;;;5080999;28;20682;-75
2021/04/07 07:52:29;;;;;;;5.57;1.23;;;;;10.30;101222.00;;;;5072399;28;20199;-74
2021/04/07 07:54:56;;;;;;;3.40;0.85;;;;;10.40;101233.00;;;;5079690;28;20235;-75
2021/04/07 07:57:24;;;;;;;8.63;1.30;;;;;10.40;101227.00;;;;5075314;28;20772;-75
2021/04/07 07:59:56;;;;;;;5.13;1.33;;;;;10.50;101230.00;;;;5084051;28;20199;-74
2021/04/07 08:02:27;;;;;;;5.03;1.23;;;;;10.60;101236.00;;;;5078785;28;20260;-74
2021/04/07 08:04:54;;;;;;;4.63;1.00;;;;;10.60;101236.00;;;;5082475;28;20621;-74
2021/04/07 08:07:22;;;;;;;3.38;1.23;;;;;10.70;101249.00;;;;5082021;28;20217;-75
2021/04/07 08:09:49;;;;;;;10.52;1.90;;;;;10.80;101269.00;;;;5089641;28;20191;-74
2021/04/07 08:12:18;;;;;;;7.03;1.00;;;;;10.80;101267.00;;;;5088954;28;20202;-74
2021/04/07 08:14:48;;;;;;;5.25;0.75;;;;;10.90;101264.00;;;;5073359;28;20202;-75
2021/04/07 08:17:15;;;;;;;9.70;1.40;;;;;11.00;101274.00;;;;5082629;28;20202;-74
2021/04/07 08:19:43;;;;;;;5.68;1.73;;;;;11.10;101289.00;;;;5091450;28;20194;-74
2021/04/07 08:22:13;;;;;;;8.23;1.60;;;;;11.10;101281.00;;;;5091397;28;20199;-76
2021/04/07 08:24:40;;;;;;;6.28;1.35;;;;;11.20;101295.00;;;;5090584;28;20202;-76
2021/04/07 08:27:09;;;;;;;9.55;1.77;;;;;11.20;101292.00;;;;5086804;28;20244;-76
2021/04/07 08:29:40;;;;;;;8.00;1.70;;;;;11.30;101293.00;;;;5090558;28;20201;-77
2021/04/07 08:32:08;;;;;;;11.45;1.92;;;;;11.30;101306.00;;;;5090950;28;20572;-75
2021/04/07 08:34:35;;;;;;;10.02;2.15;;;;;11.40;101306.00;;;;5082950;28;20668;-76
2021/04/07 08:37:02;;;;;;;10.70;2.10;;;;;11.50;101313.00;;;;5082943;28;20214;-76
2021/04/07 08:39:28;;;;;;;10.70;2.08;;;;;11.50;101321.00;;;;5077283;28;20202;-75
2021/04/07 08:41:55;;;;;;;8.00;1.23;;;;;11.50;101319.00;;;;5085436;28;20671;-75
2021/04/07 08:44:23;;;;;;;6.15;1.50;;;;;11.60;101325.00;;;;5090629;28;20357;-76
2021/04/07 08:46:53;;;;;;;5.50;1.13;;;;;11.70;101317.00;;;;5087633;28;20214;-75
2021/04/07 08:49:34;;;;;;;7.90;2.22;;;;;11.70;101320.00;;;;5089153;28;20234;-76
2021/04/07 08:52:13;;;;;;;8.80;1.50;;;;;11.80;101318.00;;;;5087928;28;20224;-76
2021/04/07 08:54:48;;;;;;;6.70;1.00;;;;;11.90;101327.00;;;;5085740;28;20198;-76
2021/04/07 08:57:27;;;;;;;8.77;1.17;;;;;12.00;101338.00;;;;5086569;28;20537;-75
2021/04/07 08:59:54;;;;;;;6.43;1.17;;;;;12.10;101359.00;;;;5088180;28;20206;-78
2021/04/07 09:02:21;;;;;;;5.07;1.23;;;;;12.10;101377.00;;;;5084367;28;20195;-75
2021/04/07 09:05:04;;;;;;;6.78;1.00;;;;;12.00;101366.00;;;;5086322;28;20190;-75
2021/04/07 09:07:41;;;;;;;4.35;1.00;;;;;12.00;101369.00;;;;5085379;28;20704;-75
2021/04/07 09:10:13;;;;;;;4.82;1.30;;;;;12.00;101368.00;;;;5089022;28;20198;-75
2021/04/07 09:12:41;;;;;;;4.22;0.95;;;;;12.00;101385.00;;;;5089736;28;20293;-76
2021/04/07 09:15:15;;;;;;;3.33;0.55;;;;;12.00;101371.00;;;;5086508;28;20197;-75
2021/04/07 09:17:44;;;;;;;3.88;0.85;;;;;12.20;101372.00;;;;5077649;28;20656;-75
2021/04/07 09:20:36;;;;;;;2.35;0.65;;;;;12.20;101376.00;;;;5085075;28;20202;-76
2021/04/07 09:23:08;;;;;;;4.93;1.00;;;;;12.40;101382.00;;;;5086789;28;20202;-77
2021/04/07 09:25:36;;;;;;;4.00;0.50;;;;;12.50;101393.00;;;;5088840;28;20259;-76
2021/04/07 09:28:05;;;;;;;1.80;0.82;;;;;12.60;101393.00;;;;5087780;28;20222;-75
2021/04/07 09:30:46;;;;;;;6.63;1.63;;;;;12.50;101402.00;;;;5089073;28;20194;-75
2021/04/07 09:33:16;;;;;;;7.65;2.03;;;;;12.60;101399.00;;;;5078435;28;20206;-75
2021/04/07 09:35:54;;;;;;;7.35;1.73;;;;;12.60;101392.00;;;;5075230;28;20738;-76
2021/04/07 09:38:21;;;;;;;10.85;2.30;;;;;12.70;101384.00;;;;5088300;28;20277;-76
2021/04/07 09:40:48;;;;;;;17.17;2.42;;;;;12.80;101385.00;;;;5088854;28;20236;-76
2021/04/07 09:43:16;;;;;;;8.57;1.63;;;;;12.90;101398.00;;;;5089444;28;20206;-76
2021/04/07 09:45:50;;;;;;;8.02;2.42;;;;;13.00;101410.00;;;;5087952;28;20678;-76
2021/04/07 09:48:17;;;;;;;8.30;1.70;;;;;13.00;101408.00;;;;5088159;28;20722;-76
2021/04/07 09:50:43;;;;;;;10.95;1.88;;;;;13.10;101412.00;;;;5084948;28;20215;-76
2021/04/07 09:53:11;;;;;;;7.70;1.00;;;;;13.20;101421.00;;;;5083706;28;20336;-76
2021/04/07 09:55:38;;;;;;;4.18;0.98;;;;;13.30;101420.00;;;;5089511;28;20190;-76
2021/04/07 09:58:05;;;;;;;4.22;1.08;;;;;13.40;101421.00;;;;5087677;28;20198;-76
2021/04/07 10:00:33;;;;;;;7.43;1.58;;;;;13.40;101426.00;;;;5087007;28;20195;-76
2021/04/07 10:03:02;;;;;;;7.85;1.58;;;;;13.40;101437.00;;;;5084624;28;20199;-76
2021/04/07 10:05:32;;;;;;;7.97;2.22;;;;;13.40;101439.00;;;;5087553;28;20304;-77
2021/04/07 10:08:15;;;;;;;6.47;0.82;;;;;13.50;101437.00;;;;5075234;28;20312;-76
2021/04/07 10:10:42;;;;;;;10.20;2.00;;;;;13.60;101443.00;;;;5078582;28;20210;-75
2021/04/07 10:13:10;;;;;;;10.70;1.52;;;;;13.70;101444.00;;;;5080190;28;20625;-75
2021/04/07 10:15:37;;;;;;;8.25;1.40;;;;;13.70;101454.00;;;;5075070;28;20195;-76
2021/04/07 10:18:09;;;;;;;6.90;1.55;;;;;13.80;101448.00;;;;5080918;28;20197;-74
2021/04/07 10:20:36;;;;;;;8.88;1.25;;;;;13.90;101450.00;;;;5081456;28;20206;-75
2021/04/07 10:23:08;;;;;;;7.47;1.25;;;;;13.80;101461.00;;;;5082282;28;20206;-75
2021/04/07 10:25:36;;;;;;;9.15;1.50;;;;;13.90;101468.00;;;;5079682;28;20628;-75
2021/04/07 10:28:04;;;;;;;5.53;1.02;;;;;13.80;101467.00;;;;5080010;28;20218;-74
2021/04/07 10:30:40;;;;;;;9.18;1.38;;;;;13.70;101484.00;;;;5079711;28;20649;-76
2021/04/07 10:33:07;;;;;;;5.95;1.45;;;;;13.60;101476.00;;;;5077321;28;20198;-75
2021/04/07 10:35:38;;;;;;;4.50;1.23;;;;;13.50;101486.00;;;;5081103;28;20194;-75
2021/04/07 10:38:09;;;;;;;8.60;1.73;;;;;13.50;101499.00;;;;5081740;28;20711;-75
2021/04/07 10:40:38;;;;;;;6.07;1.13;;;;;13.50;101497.00;;;;5081417;28;20202;-75
2021/04/07 10:43:12;;;;;;;7.63;1.42;;;;;13.40;101505.00;;;;5084479;28;20683;-75
2021/04/07 10:45:39;;;;;;;9.48;2.30;;;;;13.40;101506.00;;;;5086701;28;20240;-76
2021/04/07 10:48:07;;;;;;;7.55;1.60;;;;;13.40;101503.00;;;;5079695;28;20245;-75
2021/04/07 10:50:37;;;;;;;5.57;1.05;;;;;13.30;101524.00;;;;5086556;28;20255;-75
2021/04/07 10:53:04;;;;;;;6.15;1.38;;;;;13.20;101539.00;;;;5084423;28;20511;-75
2021/04/07 10:55:32;;;;;;;4.10;0.88;;;;;13.20;101515.00;;;;5084881;28;20214;-75
2021/04/07 10:58:01;;;;;;;5.85;1.02;;;;;13.20;101526.00;;;;5087223;28;20202;-75
2021/04/07 11:00:30;;;;;;;4.05;0.77;;;;;13.20;101528.00;;;;5087718;28;20195;-75
2021/04/07 11:02:57;;;;;;;5.72;0.95;;;;;13.20;101521.00;;;;5084940;28;20202;-75
2021/04/07 11:05:25;;;;;;;4.28;0.90;;;;;13.30;101546.00;;;;5079237;28;20198;-75
2021/04/07 11:08:03;;;;;;;2.67;0.65;;;;;13.30;101525.00;;;;5079775;28;20766;-75
2021/04/07 11:10:37;;;;;;;4.65;1.05;;;;;13.30;101532.00;;;;5083489;28;20190;-75
2021/04/07 11:13:05;;;;;;;3.47;1.05;;;;;13.40;101522.00;;;;5085797;28;20235;-76
2021/04/07 11:15:32;;;;;;;4.78;0.90;;;;;13.50;101530.00;;;;5085066;28;20242;-75
2021/04/07 11:17:59;;;;;;;7.65;1.17;;;;;13.60;101527.00;;;;5086392;28;20198;-75
2021/04/07 11:20:28;;;;;;;8.60;1.00;;;;;13.60;101537.00;;;;5085526;28;20607;-75
2021/04/07 11:22:55;;;;;;;6.57;1.50;;;;;13.60;101530.00;;;;5086846;28;20209;-76
2021/04/07 11:25:22;;;;;;;5.30;1.40;;;;;13.50;101538.00;;;;5086732;28;20202;-74
2021/04/07 11:27:51;;;;;;;4.25;0.68;;;;;13.50;101545.00;;;;5083106;28;20214;-75
2021/04/07 11:30:21;;;;;;;4.03;1.05;;;;;13.50;101549.00;;;;5083803;28;20206;-75
2021/04/07 11:32:50;;;;;;;8.23;1.48;;;;;13.60;101549.00;;;;5086592;28;20531;-74
2021/04/07 11:35:21;;;;;;;2.58;0.85;;;;;13.60;101553.00;;;;5082330;28;20188;-74
2021/04/07 11:37:52;;;;;;;6.22;1.13;;;;;13.70;101549.00;;;;5087113;28;20194;-74
2021/04/07 11:40:35;;;;;;;5.00;1.02;;;;;13.80;101545.00;;;;5081240;28;20236;-74
2021/04/07 11:43:06;;;;;;;5.40;0.80;;;;;13.80;101543.00;;;;5076109;28;20212;-74
2021/04/07 11:45:34;;;;;;;6.88;1.20;;;;;13.80;101549.00;;;;5070381;28;20247;-74
2021/04/07 11:48:00;;;;;;;8.40;1.58;;;;;13.90;101552.00;;;;5084834;28;20670;-73
2021/04/07 11:50:27;;;;;;;6.63;1.05;;;;;13.90;101558.00;;;;5071160;28;20218;-74
2021/04/07 11:52:54;;;;;;;5.85;1.00;;;;;13.90;101560.00;;;;5079537;28;20305;-74
2021/04/07 11:55:21;;;;;;;5.43;1.67;;;;;13.80;101568.00;;;;5086052;28;20198;-75
2021/04/07 11:57:48;;;;;;;6.10;1.33;;;;;13.80;101569.00;;;;5079729;28;20195;-75
2021/04/07 12:00:17;;;;;;;6.72;0.93;;;;;13.80;101572.00;;;;5083052;28;20194;-74
2021/04/07 12:02:45;;;;;;;5.30;0.93;;;;;13.80;101585.00;;;;5087004;28;20202;-74
2021/04/07 12:05:14;;;;;;;5.70;0.90;;;;;13.90;101580.00;;;;5086682;28;20551;-73
2021/04/07 12:07:41;;;;;;;4.07;0.70;;;;;13.90;101574.00;;;;5084634;28;20230;-73
2021/04/07 12:10:08;;;;;;;2.38;0.75;;;;;13.90;101591.00;;;;5084907;28;20195;-72
2021/04/07 12:12:35;;;;;;;6.47;1.17;;;;;13.90;101580.00;;;;5083058;28;20199;-72
2021/04/07 12:15:02;;;;;;;7.05;1.73;;;;;14.00;101596.00;;;;5084986;28;20205;-72
2021/04/07 12:17:31;;;;;;;8.50;0.93;;;;;14.00;101597.00;;;;5086311;28;20198;-73